createdAt,value
2019-01-25T00:00:39.042Z,46.73
2019-01-25T00:03:10.267Z,45.47
2019-01-25T00:05:38.581Z,46.13
2019-01-25T00:08:07.579Z,47.20
2019-01-25T00:10:36.517Z,42.40
2019-01-25T00:13:05.630Z,45.53
2019-01-25T00:15:34.681Z,45.63
2019-01-25T00:18:03.684Z,46.83
2019-01-25T00:20:32.718Z,45.03
2019-01-25T00:23:01.725Z,46.50
2019-01-25T00:25:30.662Z,47.77
2019-01-25T00:27:59.775Z,45.23
2019-01-25T00:30:28.821Z,44.73
2019-01-25T00:32:57.821Z,47.33
2019-01-25T00:35:26.758Z,43.70
2019-01-25T00:37:55.784Z,44.87
2019-01-25T00:40:24.743Z,48.40
2019-01-25T00:42:53.740Z,45.23
2019-01-25T00:45:22.681Z,46.27
2019-01-25T00:47:51.680Z,46.47
2019-01-25T00:50:21.425Z,47.83
2019-01-25T00:52:50.649Z,47.67
2019-01-25T00:55:19.592Z,43.93
2019-01-25T00:57:48.685Z,45.50
2019-01-25T01:00:25.899Z,43.80
2019-01-25T01:02:54.911Z,45.47
2019-01-25T01:05:23.945Z,45.90
2019-01-25T01:07:53.072Z,43.33
2019-01-25T01:10:22.003Z,47.00
2019-01-25T01:12:51.052Z,44.87
2019-01-25T01:15:20.094Z,43.33
2019-01-25T01:17:49.141Z,42.40
2019-01-25T01:20:19.741Z,42.20
2019-01-25T01:22:48.975Z,42.73
2019-01-25T01:25:18.076Z,42.57
2019-01-25T01:27:47.150Z,44.60
2019-01-25T01:30:18.560Z,42.90
2019-01-25T01:32:47.496Z,41.43
2019-01-25T01:35:16.503Z,41.73
2019-01-25T01:37:45.462Z,40.97
2019-01-25T01:40:21.732Z,42.47
2019-01-25T01:42:47.991Z,42.90
2019-01-25T01:45:17.087Z,41.20
2019-01-25T01:47:46.019Z,40.87
2019-01-25T01:50:16.715Z,41.13
2019-01-25T01:52:45.942Z,40.87
2019-01-25T01:55:15.046Z,42.20
2019-01-25T01:57:44.096Z,40.10
2019-01-25T02:00:22.037Z,41.07
2019-01-25T02:02:50.982Z,40.53
2019-01-25T02:05:19.971Z,39.53
2019-01-25T02:07:49.015Z,42.47
2019-01-25T02:10:20.477Z,39.90
2019-01-25T02:12:49.418Z,41.57
2019-01-25T02:15:20.122Z,39.83
2019-01-25T02:17:49.266Z,42.40
2019-01-25T02:20:20.783Z,38.17
2019-01-25T02:22:49.774Z,38.00
2019-01-25T02:25:18.808Z,37.70
2019-01-25T02:27:47.914Z,40.67
2019-01-25T02:30:25.076Z,39.97
2019-01-25T02:32:54.093Z,40.27
2019-01-25T02:35:23.028Z,37.77
2019-01-25T02:37:52.037Z,39.53
2019-01-25T02:40:22.770Z,37.90
2019-01-25T02:42:51.785Z,37.40
2019-01-25T02:45:20.733Z,39.23
2019-01-25T02:47:49.766Z,37.60
2019-01-25T02:50:19.918Z,40.03
2019-01-25T02:52:49.031Z,36.97
2019-01-25T02:55:18.179Z,38.07
2019-01-25T02:57:47.184Z,38.17
2019-01-25T03:00:18.164Z,39.90
2019-01-25T03:02:47.127Z,37.83
2019-01-25T03:05:17.714Z,37.53
2019-01-25T03:07:46.751Z,38.03
2019-01-25T03:10:17.078Z,35.73
2019-01-25T03:12:46.091Z,35.87
2019-01-25T03:15:17.702Z,37.90
2019-01-25T03:17:46.716Z,39.77
2019-01-25T03:20:16.645Z,37.53
2019-01-25T03:22:45.639Z,37.07
2019-01-25T03:25:19.717Z,37.03
2019-01-25T03:27:48.748Z,34.47
2019-01-25T03:30:22.284Z,33.87
2019-01-25T03:32:51.280Z,32.17
2019-01-25T03:35:22.033Z,33.50
2019-01-25T03:37:51.026Z,34.50
2019-01-25T03:40:24.975Z,36.13
2019-01-25T03:42:53.970Z,36.63
2019-01-25T03:45:22.912Z,35.23
2019-01-25T03:47:51.830Z,37.93
2019-01-25T03:50:26.425Z,37.10
2019-01-25T03:52:55.321Z,38.77
2019-01-25T03:55:24.317Z,33.63
2019-01-25T03:57:53.350Z,33.97
2019-01-25T04:00:24.927Z,36.43
2019-01-25T04:02:53.866Z,34.13
2019-01-25T04:05:22.859Z,33.43
2019-01-25T04:07:51.818Z,36.77
2019-01-25T04:10:23.470Z,35.03
2019-01-25T04:12:52.394Z,35.53
2019-01-25T04:15:26.480Z,32.43
2019-01-25T04:17:55.418Z,33.97
2019-01-25T04:20:24.635Z,31.77
2019-01-25T04:22:53.577Z,32.07
2019-01-25T04:25:23.274Z,34.23
2019-01-25T04:28:06.719Z,33.03
2019-01-25T04:30:35.734Z,33.63
2019-01-25T04:33:07.808Z,33.77
2019-01-25T04:35:36.790Z,32.13
2019-01-25T04:38:05.725Z,33.17
2019-01-25T04:40:34.752Z,34.87
2019-01-25T04:43:03.795Z,32.63
2019-01-25T04:45:32.895Z,33.77
2019-01-25T04:48:01.950Z,33.70
2019-01-25T04:50:30.942Z,33.40
2019-01-25T04:52:59.879Z,37.07
2019-01-25T04:55:31.249Z,35.07
2019-01-25T04:58:06.083Z,33.43
2019-01-25T05:00:35.059Z,33.17
2019-01-25T05:03:03.998Z,33.63
2019-01-25T05:05:32.999Z,33.03
2019-01-25T05:08:11.009Z,31.40
2019-01-25T05:10:40.008Z,31.10
2019-01-25T05:13:08.943Z,33.17
2019-01-25T05:15:37.948Z,32.10
2019-01-25T05:18:07.002Z,34.27
2019-01-25T05:20:36.104Z,34.90
2019-01-25T05:23:07.081Z,36.07
2019-01-25T05:25:36.008Z,35.50
2019-01-25T05:28:16.219Z,34.87
2019-01-25T05:30:54.071Z,34.43
2019-01-25T05:33:23.008Z,32.93
2019-01-25T05:35:52.042Z,37.57
2019-01-25T05:38:21.138Z,34.77
2019-01-25T05:40:50.080Z,34.10
2019-01-25T05:43:19.074Z,35.67
2019-01-25T05:45:48.031Z,36.43
2019-01-25T05:48:17.022Z,36.20
2019-01-25T05:50:46.047Z,36.03
2019-01-25T05:53:16.149Z,35.10
2019-01-25T05:55:45.100Z,38.20
2019-01-25T05:58:14.107Z,37.23
2019-01-25T06:00:44.846Z,37.97
2019-01-25T06:03:16.308Z,36.70
2019-01-25T06:05:45.245Z,34.07
2019-01-25T06:08:31.329Z,38.40
2019-01-25T06:11:01.757Z,36.40
2019-01-25T06:13:30.862Z,37.10
2019-01-25T06:15:59.790Z,35.97
2019-01-25T06:18:28.779Z,36.97
2019-01-25T06:20:58.732Z,35.67
2019-01-25T06:23:27.828Z,36.20
2019-01-25T06:25:58.175Z,36.67
2019-01-25T06:28:27.216Z,37.50
2019-01-25T06:30:56.126Z,37.67
2019-01-25T06:33:25.129Z,34.83
2019-01-25T06:35:54.064Z,34.60
2019-01-25T06:38:23.060Z,35.53
2019-01-25T06:40:52.010Z,36.37
2019-01-25T06:43:21.035Z,36.47
2019-01-25T06:45:50.013Z,35.87
2019-01-25T06:48:19.050Z,49.77
2019-01-25T06:50:47.991Z,38.73
2019-01-25T06:53:16.998Z,35.67
2019-01-25T06:55:45.945Z,37.17
2019-01-25T06:58:31.439Z,33.73
2019-01-25T07:01:07.733Z,33.97
2019-01-25T07:03:36.738Z,34.20
2019-01-25T07:06:05.777Z,36.27
2019-01-25T07:08:35.035Z,33.53
2019-01-25T07:11:03.973Z,36.23
2019-01-25T07:13:32.911Z,33.50
2019-01-25T07:16:01.920Z,35.63
2019-01-25T07:18:30.848Z,33.67
2019-01-25T07:20:59.851Z,35.70
2019-01-25T07:23:28.907Z,35.73
2019-01-25T07:25:57.909Z,35.50
2019-01-25T07:28:26.869Z,34.03
2019-01-25T07:30:55.960Z,36.23
2019-01-25T07:33:24.929Z,33.67
2019-01-25T07:35:55.759Z,34.83
2019-01-25T07:38:24.813Z,34.67
2019-01-25T07:40:53.801Z,36.00
2019-01-25T07:43:22.743Z,36.50
2019-01-25T07:45:51.928Z,35.87
2019-01-25T07:48:20.987Z,35.77
2019-01-25T07:50:49.997Z,32.17
2019-01-25T07:53:18.930Z,34.20
2019-01-25T07:55:47.952Z,36.30
2019-01-25T07:58:16.884Z,36.80
2019-01-25T08:00:45.908Z,37.27
2019-01-25T08:03:14.837Z,38.57
2019-01-25T08:05:43.866Z,36.53
2019-01-25T08:08:12.870Z,35.77
2019-01-25T08:10:41.978Z,35.03
2019-01-25T08:13:10.939Z,33.43
2019-01-25T08:15:41.577Z,35.13
2019-01-25T08:18:10.400Z,35.30
2019-01-25T08:20:39.399Z,37.20
2019-01-25T08:23:08.441Z,37.50
2019-01-25T08:25:37.565Z,34.63
2019-01-25T08:28:06.537Z,34.70
2019-01-25T08:30:35.550Z,35.67
2019-01-25T08:33:04.624Z,34.67
2019-01-25T08:35:33.740Z,33.73
2019-01-25T08:38:02.896Z,33.43
2019-01-25T08:40:31.842Z,35.17
2019-01-25T08:43:00.841Z,33.30
2019-01-25T08:45:29.918Z,32.10
2019-01-25T08:47:58.927Z,32.87
2019-01-25T08:50:28.357Z,33.43
2019-01-25T08:52:57.385Z,34.97
2019-01-25T08:55:26.399Z,33.03
2019-01-25T08:57:55.414Z,32.90
2019-01-25T09:00:26.042Z,31.30
2019-01-25T09:02:55.050Z,32.77
2019-01-25T09:05:23.996Z,34.23
2019-01-25T09:07:52.995Z,33.97
2019-01-25T09:10:24.331Z,33.40
2019-01-25T09:12:53.330Z,34.20
2019-01-25T09:15:25.480Z,34.23
2019-01-25T09:17:54.501Z,34.97
2019-01-25T09:20:23.438Z,33.60
2019-01-25T09:22:52.431Z,35.27
2019-01-25T09:25:21.361Z,33.83
2019-01-25T09:27:50.385Z,35.00
2019-01-25T09:30:24.555Z,31.03
2019-01-25T09:32:53.549Z,32.30
2019-01-25T09:35:22.486Z,32.10
2019-01-25T09:37:51.484Z,30.77
2019-01-25T09:40:25.412Z,32.47
2019-01-25T09:42:54.415Z,33.37
2019-01-25T09:45:23.376Z,33.40
2019-01-25T09:47:52.387Z,29.30
2019-01-25T09:50:22.532Z,31.40
2019-01-25T09:52:51.544Z,30.87
2019-01-25T09:55:25.042Z,31.57
2019-01-25T09:58:12.125Z,30.10
2019-01-25T10:00:44.184Z,30.90
2019-01-25T10:03:13.295Z,32.20
2019-01-25T10:05:42.331Z,31.57
2019-01-25T10:08:11.317Z,32.77
2019-01-25T10:10:40.260Z,33.63
2019-01-25T10:13:09.275Z,30.87
2019-01-25T10:15:38.201Z,34.40
2019-01-25T10:18:07.163Z,31.67
2019-01-25T10:20:36.146Z,32.73
2019-01-25T10:23:05.083Z,34.17
2019-01-25T10:25:34.602Z,32.63
2019-01-25T10:28:03.545Z,31.23
2019-01-25T10:30:32.652Z,32.40
2019-01-25T10:33:01.594Z,34.90
2019-01-25T10:35:31.630Z,32.00
2019-01-25T10:38:00.654Z,32.60
2019-01-25T10:40:29.658Z,29.90
2019-01-25T10:42:59.209Z,30.17
2019-01-25T10:45:34.044Z,30.77
2019-01-25T10:48:02.965Z,31.67
2019-01-25T10:50:31.965Z,31.03
2019-01-25T10:53:00.900Z,31.00
2019-01-25T10:55:29.929Z,32.43
2019-01-25T10:57:58.862Z,32.13
2019-01-25T11:00:28.161Z,31.50
2019-01-25T11:02:58.466Z,31.93
2019-01-25T11:05:28.896Z,32.43
2019-01-25T11:07:57.838Z,31.93
2019-01-25T11:10:26.832Z,31.83
2019-01-25T11:13:00.831Z,31.10
2019-01-25T11:15:26.516Z,32.63
2019-01-25T11:17:55.458Z,32.60
2019-01-25T11:20:25.759Z,30.30
2019-01-25T11:22:54.806Z,30.77
2019-01-25T11:25:29.486Z,31.20
2019-01-25T11:27:58.426Z,29.37
2019-01-25T11:30:27.539Z,30.00
2019-01-25T11:32:56.503Z,30.13
2019-01-25T11:35:25.624Z,30.07
2019-01-25T11:37:54.571Z,26.53
2019-01-25T11:40:41.381Z,28.27
2019-01-25T11:43:10.442Z,27.67
2019-01-25T11:45:39.435Z,29.63
2019-01-25T11:48:10.891Z,28.60
2019-01-25T11:50:39.818Z,29.90
2019-01-25T11:53:08.815Z,27.97
2019-01-25T11:55:37.752Z,27.03
2019-01-25T11:58:06.758Z,28.37
2019-01-25T12:00:36.618Z,25.37
2019-01-25T12:03:05.713Z,24.50
2019-01-25T12:05:34.644Z,28.17
2019-01-25T12:08:03.657Z,29.23
2019-01-25T12:10:33.282Z,25.80
2019-01-25T12:13:02.388Z,28.70
2019-01-25T12:15:31.319Z,26.53
2019-01-25T12:18:00.310Z,26.33
2019-01-25T12:20:31.169Z,26.27
2019-01-25T12:23:00.143Z,23.53
2019-01-25T12:25:29.075Z,25.90
2019-01-25T12:27:58.281Z,26.50
2019-01-25T12:30:32.077Z,26.57
2019-01-25T12:33:01.093Z,23.43
2019-01-25T12:35:32.927Z,25.13
2019-01-25T12:38:01.934Z,23.83
2019-01-25T12:40:30.972Z,24.17
2019-01-25T12:42:59.984Z,26.40
2019-01-25T12:45:31.081Z,23.57
2019-01-25T12:48:00.176Z,23.33
2019-01-25T12:50:49.008Z,25.13
2019-01-25T12:53:17.797Z,25.33
2019-01-25T12:55:46.736Z,24.80
2019-01-25T12:58:15.759Z,25.40
2019-01-25T13:00:44.679Z,26.37
2019-01-25T13:03:13.673Z,23.80
2019-01-25T13:05:43.328Z,26.20
2019-01-25T13:08:12.440Z,23.60
2019-01-25T13:10:41.388Z,24.20
2019-01-25T13:13:10.445Z,23.97
2019-01-25T13:15:39.377Z,25.97
2019-01-25T13:18:08.299Z,23.93
2019-01-25T13:20:39.539Z,25.77
2019-01-25T13:23:07.794Z,25.87
2019-01-25T13:25:36.792Z,24.53
2019-01-25T13:28:05.857Z,28.20
2019-01-25T13:30:34.869Z,23.53
2019-01-25T13:33:03.797Z,25.10
2019-01-25T13:35:32.777Z,26.03
2019-01-25T13:38:01.817Z,26.43
2019-01-25T13:40:30.810Z,25.50
2019-01-25T13:42:59.743Z,25.60
2019-01-25T13:45:28.851Z,26.83
2019-01-25T13:47:57.784Z,28.50
2019-01-25T13:50:29.093Z,24.30
2019-01-25T13:52:58.021Z,26.30
2019-01-25T13:55:27.023Z,24.50
2019-01-25T13:57:55.973Z,27.70
2019-01-25T14:00:27.437Z,26.10
2019-01-25T14:02:56.476Z,26.30
2019-01-25T14:05:25.486Z,27.90
2019-01-25T14:07:54.432Z,26.40
2019-01-25T14:10:31.893Z,26.93
2019-01-25T14:13:00.847Z,28.50
2019-01-25T14:15:29.864Z,27.83
2019-01-25T14:17:58.813Z,27.57
2019-01-25T14:20:32.502Z,27.00
2019-01-25T14:23:01.428Z,26.37
2019-01-25T14:25:30.519Z,27.50
2019-01-25T14:27:59.455Z,28.03
2019-01-25T14:30:39.534Z,29.10
2019-01-25T14:33:08.486Z,29.27
2019-01-25T14:35:37.568Z,28.47
2019-01-25T14:38:06.615Z,25.17
2019-01-25T14:40:35.533Z,26.77
2019-01-25T14:43:04.527Z,27.77
2019-01-25T14:45:33.455Z,28.37
2019-01-25T14:48:02.564Z,27.30
2019-01-25T14:50:32.605Z,32.40
2019-01-25T14:53:01.600Z,30.07
2019-01-25T14:55:30.554Z,32.03
2019-01-25T14:57:59.567Z,38.13
2019-01-25T15:00:28.493Z,33.83
2019-01-25T15:02:57.603Z,32.53
2019-01-25T15:05:26.545Z,28.70
2019-01-25T15:07:55.568Z,28.93
2019-01-25T15:10:25.398Z,26.73
2019-01-25T15:12:56.401Z,28.80
2019-01-25T15:15:25.338Z,29.80
2019-01-25T15:17:54.345Z,29.53
2019-01-25T15:20:25.302Z,27.23
2019-01-25T15:22:54.312Z,25.17
2019-01-25T15:25:23.253Z,27.77
2019-01-25T15:27:52.257Z,28.80
2019-01-25T15:30:23.754Z,27.47
2019-01-25T15:32:52.754Z,26.70
2019-01-25T15:35:22.194Z,27.47
2019-01-25T15:37:51.195Z,27.87
2019-01-25T15:40:21.030Z,24.97
2019-01-25T15:42:50.055Z,25.53
2019-01-25T15:45:20.204Z,26.00
2019-01-25T15:47:49.187Z,26.57
2019-01-25T15:50:26.508Z,27.83
2019-01-25T15:52:55.502Z,25.60
2019-01-25T15:55:24.633Z,25.73
2019-01-25T15:57:53.632Z,27.40
2019-01-25T16:00:24.457Z,26.57
2019-01-25T16:02:53.655Z,25.90
2019-01-25T16:05:23.162Z,25.33
2019-01-25T16:07:52.346Z,25.40
2019-01-25T16:10:24.148Z,24.23
2019-01-25T16:12:53.391Z,24.53
2019-01-25T16:15:28.180Z,27.77
2019-01-25T16:17:57.247Z,26.37
2019-01-25T16:20:26.242Z,26.93
2019-01-25T16:22:55.989Z,30.00
2019-01-25T16:25:27.090Z,27.07
2019-01-25T16:27:56.047Z,25.03
2019-01-25T16:30:33.446Z,26.13
2019-01-25T16:33:02.381Z,25.37
2019-01-25T16:35:38.351Z,27.83
2019-01-25T16:38:07.301Z,27.47
2019-01-25T16:40:37.218Z,36.13
2019-01-25T16:43:07.963Z,31.60
2019-01-25T16:45:41.439Z,27.13
2019-01-25T16:48:10.473Z,48.40
2019-01-25T16:50:39.903Z,28.40
2019-01-25T16:53:09.812Z,26.50
2019-01-25T16:55:38.904Z,24.10
2019-01-25T16:58:07.858Z,27.57
2019-01-25T17:00:41.812Z,25.33
2019-01-25T17:03:10.747Z,26.77
2019-01-25T17:05:39.743Z,27.13
2019-01-25T17:08:08.678Z,24.10
2019-01-25T17:10:37.683Z,26.10
2019-01-25T17:13:06.607Z,25.97
2019-01-25T17:15:35.627Z,27.20
2019-01-25T17:18:04.862Z,26.03
2019-01-25T17:20:33.844Z,28.33
2019-01-25T17:23:02.805Z,23.77
2019-01-25T17:25:31.829Z,25.73
2019-01-25T17:28:00.831Z,30.60
2019-01-25T17:30:34.320Z,32.57
2019-01-25T17:33:03.267Z,27.03
2019-01-25T17:35:32.664Z,27.10
2019-01-25T17:38:01.910Z,25.43
2019-01-25T17:40:36.704Z,25.70
2019-01-25T17:43:05.822Z,27.23
2019-01-25T17:45:34.824Z,27.80
2019-01-25T17:48:03.756Z,27.47
2019-01-25T17:50:32.768Z,26.97
2019-01-25T17:53:01.709Z,28.13
2019-01-25T17:55:30.646Z,30.10
2019-01-25T17:57:59.644Z,27.23
2019-01-25T18:00:32.355Z,27.23
2019-01-25T18:03:01.353Z,26.33
2019-01-25T18:05:30.288Z,27.00
2019-01-25T18:07:59.325Z,25.67
2019-01-25T18:10:28.351Z,25.80
2019-01-25T18:12:57.363Z,25.57
2019-01-25T18:15:26.309Z,26.30
2019-01-25T18:17:55.805Z,33.67
2019-01-25T18:20:25.233Z,35.27
2019-01-25T18:22:54.241Z,29.53
2019-01-25T18:25:35.142Z,49.53
2019-01-25T18:28:13.188Z,33.87
2019-01-25T18:30:47.940Z,30.17
2019-01-25T18:33:16.939Z,35.73
2019-01-25T18:35:45.912Z,35.47
2019-01-25T18:38:14.869Z,28.27
2019-01-25T18:40:43.806Z,25.57
2019-01-25T18:43:12.804Z,24.80
2019-01-25T18:45:41.735Z,25.10
2019-01-25T18:48:10.731Z,27.10
2019-01-25T18:50:40.715Z,23.33
2019-01-25T18:53:09.714Z,23.63
2019-01-25T18:55:38.645Z,23.40
2019-01-25T18:58:07.644Z,24.07
2019-01-25T19:00:36.583Z,25.20
2019-01-25T19:03:13.044Z,25.90
2019-01-25T19:05:41.968Z,23.60
2019-01-25T19:08:10.889Z,24.63
2019-01-25T19:10:39.880Z,24.27
2019-01-25T19:13:08.817Z,25.33
2019-01-25T19:15:37.816Z,23.33
2019-01-25T19:18:06.761Z,23.97
2019-01-25T19:20:35.746Z,21.77
2019-01-25T19:23:04.680Z,24.33
2019-01-25T19:25:33.784Z,24.63
2019-01-25T19:28:02.724Z,21.40
2019-01-25T19:30:36.966Z,21.27
2019-01-25T19:33:06.009Z,23.23
2019-01-25T19:35:34.994Z,22.43
2019-01-25T19:38:03.957Z,23.40
2019-01-25T19:40:34.567Z,23.47
2019-01-25T19:43:03.500Z,23.77
2019-01-25T19:45:32.499Z,24.87
2019-01-25T19:48:01.456Z,24.80
2019-01-25T19:50:30.454Z,24.87
2019-01-25T19:52:59.391Z,25.63
2019-01-25T19:55:31.056Z,25.27
2019-01-25T19:58:01.582Z,22.53
2019-01-25T20:00:36.247Z,24.70
2019-01-25T20:03:05.683Z,24.47
2019-01-25T20:05:34.690Z,24.63
2019-01-25T20:08:03.637Z,25.30
2019-01-25T20:10:32.626Z,24.53
2019-01-25T20:13:01.562Z,23.10
2019-01-25T20:15:30.560Z,24.87
2019-01-25T20:17:59.590Z,20.20
2019-01-25T20:20:33.646Z,21.40
2019-01-25T20:23:02.578Z,21.57
2019-01-25T20:25:31.580Z,23.43
2019-01-25T20:28:00.518Z,21.27
2019-01-25T20:30:33.888Z,20.17
2019-01-25T20:33:04.522Z,19.93
2019-01-25T20:35:36.210Z,19.67
2019-01-25T20:38:05.354Z,20.50
2019-01-25T20:40:34.282Z,19.83
2019-01-25T20:43:03.289Z,18.80
2019-01-25T20:45:38.224Z,19.67
2019-01-25T20:48:10.350Z,20.00
2019-01-25T20:50:39.786Z,17.17
2019-01-25T20:53:11.076Z,18.30
2019-01-25T20:55:40.021Z,18.93
2019-01-25T20:58:09.228Z,17.97
2019-01-25T21:00:39.789Z,16.73
2019-01-25T21:03:10.877Z,18.70
2019-01-25T21:05:39.916Z,16.93
2019-01-25T21:08:08.919Z,17.77
2019-01-25T21:10:37.856Z,16.47
2019-01-25T21:13:06.964Z,16.60
2019-01-25T21:15:35.919Z,16.67
2019-01-25T21:18:05.719Z,16.73
2019-01-25T21:20:39.944Z,14.90
2019-01-25T21:23:09.045Z,13.93
2019-01-25T21:25:38.083Z,15.80
2019-01-25T21:28:07.091Z,16.17
2019-01-25T21:30:37.126Z,14.53
2019-01-25T21:33:06.532Z,13.00
2019-01-25T21:35:35.456Z,12.90
2019-01-25T21:38:05.059Z,13.20
2019-01-25T21:40:34.906Z,11.83
2019-01-25T21:43:03.896Z,11.10
2019-01-25T21:45:34.223Z,12.27
2019-01-25T21:48:04.536Z,12.40
2019-01-25T21:50:36.400Z,12.07
2019-01-25T21:53:05.393Z,11.90
2019-01-25T21:55:34.321Z,11.63
2019-01-25T21:58:05.518Z,10.70
2019-01-25T22:00:35.507Z,10.73
2019-01-25T22:03:04.832Z,11.80
2019-01-25T22:05:33.826Z,15.33
2019-01-25T22:08:02.762Z,12.90
2019-01-25T22:10:37.150Z,17.60
2019-01-25T22:13:06.086Z,11.83
2019-01-25T22:15:35.099Z,10.97
2019-01-25T22:18:04.043Z,10.83
2019-01-25T22:20:33.061Z,11.20
2019-01-25T22:23:01.996Z,10.40
2019-01-25T22:25:30.999Z,9.80
2019-01-25T22:27:59.938Z,10.30
2019-01-25T22:30:29.638Z,9.93
2019-01-25T22:32:58.561Z,9.57
2019-01-25T22:35:27.660Z,9.27
2019-01-25T22:37:56.623Z,9.13
2019-01-25T22:40:30.220Z,9.43
2019-01-25T22:42:59.155Z,9.30
2019-01-25T22:45:29.648Z,9.87
2019-01-25T22:47:59.467Z,8.13
2019-01-25T22:50:30.476Z,9.20
2019-01-25T22:52:59.402Z,8.80
2019-01-25T22:55:28.402Z,10.03
2019-01-25T22:57:57.336Z,9.30
2019-01-25T23:00:36.645Z,9.27
2019-01-25T23:03:05.580Z,9.17
2019-01-25T23:05:40.636Z,9.10
2019-01-25T23:08:09.566Z,9.97
2019-01-25T23:10:38.501Z,9.90
2019-01-25T23:13:07.600Z,10.30
2019-01-25T23:15:36.524Z,9.30
2019-01-25T23:18:05.628Z,9.23
2019-01-25T23:20:34.565Z,8.87
2019-01-25T23:23:03.563Z,9.60
2019-01-25T23:25:32.496Z,9.30
2019-01-25T23:28:01.502Z,10.20
2019-01-25T23:30:30.450Z,10.13
2019-01-25T23:32:59.446Z,11.37
2019-01-25T23:35:28.374Z,12.23
2019-01-25T23:37:57.378Z,9.67
2019-01-25T23:40:26.301Z,9.50
2019-01-25T23:42:55.300Z,11.50
2019-01-25T23:45:24.231Z,9.77
2019-01-25T23:47:53.237Z,11.03
2019-01-25T23:50:22.162Z,12.13
2019-01-25T23:52:51.165Z,9.17
2019-01-25T23:55:20.175Z,10.33
2019-01-25T23:57:49.206Z,10.43
